Time;durP1;ratioP1;P1;durP2;ratioP2;P2;SDS_P1;SDS_P2;PMS_P1;PMS_P2;Temp;Humidity;BMP_temperature;BMP_pressure;BME280_temperature;BME280_humidity;BME280_pressure;Samples;Min_cycle;Max_cycle;Signal;HPM_P1;HPM_P2
2024/01/03 00:00:48;;;;;;;;;;;19.70;63.40;;;;;;5076352;28;19928;-61
2024/01/03 00:03:15;;;;;;;;;;;19.70;63.40;;;;;;5074037;28;20339;-61
2024/01/03 00:05:41;;;;;;;;;;;19.60;63.30;;;;;;5057604;28;19924;-61
2024/01/03 00:08:11;;;;;;;;;;;19.60;63.20;;;;;;5057319;28;20380;-61
2024/01/03 00:10:49;;;;;;;;;;;19.60;63.10;;;;;;5074313;28;19928;-61
2024/01/03 00:13:46;;;;;;;;;;;19.60;63.10;;;;;;5074544;28;20300;-61
2024/01/03 00:16:18;;;;;;;;;;;19.60;63.10;;;;;;5056344;28;19934;-61
2024/01/03 00:18:48;;;;;;;;;;;19.60;63.10;;;;;;5056971;28;20023;-61
2024/01/03 00:21:14;;;;;;;;;;;19.60;63.00;;;;;;5078552;28;19964;-61
2024/01/03 00:23:47;;;;;;;;;;;19.60;62.90;;;;;;5073996;28;20073;-61
2024/01/03 00:26:13;;;;;;;;;;;19.50;62.80;;;;;;5090146;28;19924;-61
2024/01/03 00:28:38;;;;;;;;;;;19.50;62.80;;;;;;5075461;28;19931;-61
2024/01/03 00:31:04;;;;;;;;;;;19.50;62.70;;;;;;5093511;28;19924;-61
2024/01/03 00:33:30;;;;;;;;;;;19.50;62.70;;;;;;5094101;28;19928;-61
2024/01/03 00:35:55;;;;;;;;;;;19.50;62.70;;;;;;5074340;28;20287;-61
2024/01/03 00:38:21;;;;;;;;;;;19.50;62.70;;;;;;5073007;28;20311;-61
2024/01/03 00:40:51;;;;;;;;;;;19.50;62.60;;;;;;5074098;28;19978;-61
2024/01/03 00:43:16;;;;;;;;;;;19.50;62.60;;;;;;5074162;28;19924;-61
2024/01/03 00:45:42;;;;;;;;;;;19.50;62.60;;;;;;5073637;28;19939;-61
2024/01/03 00:48:07;;;;;;;;;;;19.50;62.50;;;;;;5039017;28;20410;-61
2024/01/03 00:50:33;;;;;;;;;;;19.50;62.60;;;;;;5056097;28;19931;-61
2024/01/03 00:52:58;;;;;;;;;;;19.40;62.50;;;;;;5055294;28;19929;-61
2024/01/03 00:55:24;;;;;;;;;;;19.40;62.50;;;;;;5074103;28;20019;-61
2024/01/03 00:57:49;;;;;;;;;;;19.40;62.50;;;;;;5055657;28;20388;-61
2024/01/03 01:00:15;;;;;;;;;;;19.40;62.40;;;;;;5082796;28;19931;-61
2024/01/03 01:02:40;;;;;;;;;;;19.40;62.40;;;;;;5087827;28;19987;-61
2024/01/03 01:05:06;;;;;;;;;;;19.40;62.40;;;;;;5038666;28;19931;-61
2024/01/03 01:07:31;;;;;;;;;;;19.40;62.40;;;;;;5082225;28;20015;-61
2024/01/03 01:09:57;;;;;;;;;;;19.40;62.30;;;;;;5093810;28;19971;-61
2024/01/03 01:12:23;;;;;;;;;;;19.40;62.30;;;;;;5093422;28;19923;-61
2024/01/03 01:14:48;;;;;;;;;;;19.40;62.30;;;;;;5094211;28;20021;-61
2024/01/03 01:17:14;;;;;;;;;;;19.30;62.20;;;;;;5093822;28;20287;-61
2024/01/03 01:19:40;;;;;;;;;;;19.30;62.20;;;;;;5061855;28;19931;-61
2024/01/03 01:22:06;;;;;;;;;;;19.30;62.20;;;;;;5055108;28;20300;-61
2024/01/03 01:24:31;;;;;;;;;;;19.30;62.10;;;;;;5070546;28;19924;-61
2024/01/03 01:26:57;;;;;;;;;;;19.30;62.10;;;;;;5072009;28;19994;-61
2024/01/03 01:29:22;;;;;;;;;;;19.30;62.00;;;;;;5055979;28;19924;-61
2024/01/03 01:31:48;;;;;;;;;;;19.30;62.00;;;;;;5073550;28;19928;-61
2024/01/03 01:34:13;;;;;;;;;;;19.30;62.00;;;;;;5072308;28;20001;-62
2024/01/03 01:36:39;;;;;;;;;;;19.30;62.00;;;;;;5073115;28;19925;-61
2024/01/03 01:39:04;;;;;;;;;;;19.30;62.00;;;;;;5073048;28;20328;-61
2024/01/03 01:41:30;;;;;;;;;;;19.30;62.00;;;;;;5072723;28;19951;-61
2024/01/03 01:43:55;;;;;;;;;;;19.20;61.90;;;;;;5072862;28;19924;-61
2024/01/03 01:46:21;;;;;;;;;;;19.20;61.90;;;;;;5081541;28;20413;-61
2024/01/03 01:48:47;;;;;;;;;;;19.20;61.90;;;;;;5070963;28;20046;-61
2024/01/03 01:51:12;;;;;;;;;;;19.20;61.90;;;;;;5075265;28;19927;-61
2024/01/03 01:53:37;;;;;;;;;;;19.20;61.90;;;;;;5075309;28;20018;-61
2024/01/03 01:56:03;;;;;;;;;;;19.20;61.90;;;;;;5092422;28;19924;-61
2024/01/03 01:58:29;;;;;;;;;;;19.20;61.90;;;;;;5083496;28;20427;-61
2024/01/03 02:00:54;;;;;;;;;;;19.20;61.90;;;;;;5054932;28;19924;-61
2024/01/03 02:03:20;;;;;;;;;;;19.20;61.90;;;;;;5089186;28;20007;-61
2024/01/03 02:05:45;;;;;;;;;;;19.20;61.80;;;;;;5073371;28;19924;-61
2024/01/03 02:08:11;;;;;;;;;;;19.10;61.80;;;;;;5073858;28;20073;-61
2024/01/03 02:10:36;;;;;;;;;;;19.20;61.90;;;;;;5070934;28;19928;-61
2024/01/03 02:13:02;;;;;;;;;;;19.10;61.80;;;;;;5056477;28;20320;-61
2024/01/03 02:15:27;;;;;;;;;;;19.10;61.80;;;;;;5082940;28;19975;-61
2024/01/03 02:17:53;;;;;;;;;;;19.10;61.70;;;;;;5079578;28;20033;-61
2024/01/03 02:20:19;;;;;;;;;;;19.10;61.70;;;;;;5059524;28;20332;-61
2024/01/03 02:22:44;;;;;;;;;;;19.10;61.70;;;;;;5084606;28;20427;-61
2024/01/03 02:25:10;;;;;;;;;;;19.10;61.60;;;;;;5078919;28;19924;-61
2024/01/03 02:27:39;;;;;;;;;;;19.10;61.60;;;;;;5097746;28;19947;-61
2024/01/03 02:30:05;;;;;;;;;;;19.10;61.60;;;;;;5096235;28;19924;-61
2024/01/03 02:32:30;;;;;;;;;;;19.00;61.50;;;;;;5078811;28;19935;-61
2024/01/03 02:34:56;;;;;;;;;;;19.00;61.60;;;;;;5058897;28;19931;-61
2024/01/03 02:37:22;;;;;;;;;;;19.00;61.50;;;;;;5076969;28;19925;-60
2024/01/03 02:39:49;;;;;;;;;;;19.00;61.50;;;;;;5066223;28;19974;-61
2024/01/03 02:42:14;;;;;;;;;;;19.00;61.50;;;;;;5076483;28;19963;-61
2024/01/03 02:44:40;;;;;;;;;;;19.00;61.50;;;;;;5058053;28;20408;-61
2024/01/03 02:47:06;;;;;;;;;;;19.00;61.50;;;;;;5076281;28;19924;-61
2024/01/03 02:49:31;;;;;;;;;;;19.00;61.50;;;;;;5076361;28;19931;-61
2024/01/03 02:51:57;;;;;;;;;;;19.00;61.40;;;;;;5058036;28;19924;-61
2024/01/03 02:54:22;;;;;;;;;;;19.00;61.40;;;;;;5076617;28;19932;-61
2024/01/03 02:56:49;;;;;;;;;;;19.00;61.40;;;;;;5076471;28;19928;-61
2024/01/03 02:59:14;;;;;;;;;;;19.00;61.40;;;;;;5075356;28;19925;-61
2024/01/03 03:01:39;;;;;;;;;;;19.00;61.40;;;;;;5080271;28;20307;-61
2024/01/03 03:04:05;;;;;;;;;;;19.00;61.40;;;;;;5096090;28;19947;-61
2024/01/03 03:06:30;;;;;;;;;;;18.90;61.40;;;;;;5095435;28;20034;-61
2024/01/03 03:08:56;;;;;;;;;;;19.00;61.50;;;;;;5085157;28;20019;-61
2024/01/03 03:11:22;;;;;;;;;;;18.90;61.40;;;;;;5057991;28;19925;-61
2024/01/03 03:13:47;;;;;;;;;;;18.90;61.40;;;;;;5075450;28;19928;-61
2024/01/03 03:16:12;;;;;;;;;;;18.90;61.40;;;;;;5083301;28;19924;-61
2024/01/03 03:18:38;;;;;;;;;;;18.90;61.40;;;;;;5095451;28;20069;-61
2024/01/03 03:21:04;;;;;;;;;;;18.90;61.40;;;;;;5095672;28;19924;-61
2024/01/03 03:23:29;;;;;;;;;;;18.90;61.40;;;;;;5078193;28;20025;-61
2024/01/03 03:25:55;;;;;;;;;;;18.90;61.50;;;;;;5095096;28;19924;-61
2024/01/03 03:28:21;;;;;;;;;;;18.90;61.50;;;;;;5074474;28;19931;-60
2024/01/03 03:30:47;;;;;;;;;;;18.90;61.50;;;;;;5079309;28;19925;-61
2024/01/03 03:33:12;;;;;;;;;;;18.90;61.50;;;;;;5094801;28;20360;-61
2024/01/03 03:35:38;;;;;;;;;;;19.00;61.60;;;;;;5078400;28;20288;-61
2024/01/03 03:38:03;;;;;;;;;;;18.90;61.50;;;;;;5095708;28;19932;-61
2024/01/03 03:40:29;;;;;;;;;;;19.00;61.50;;;;;;5085470;28;19970;-61
2024/01/03 03:42:54;;;;;;;;;;;19.00;61.50;;;;;;5075230;28;19925;-62
2024/01/03 03:45:20;;;;;;;;;;;19.00;61.50;;;;;;5091941;28;19931;-62
2024/01/03 03:47:46;;;;;;;;;;;19.00;61.50;;;;;;5094910;28;19924;-62
2024/01/03 03:50:11;;;;;;;;;;;19.00;61.50;;;;;;5095283;28;19928;-61
2024/01/03 03:52:39;;;;;;;;;;;19.00;61.50;;;;;;5095901;28;20284;-61
2024/01/03 03:55:04;;;;;;;;;;;19.00;61.50;;;;;;5094353;28;20273;-62
2024/01/03 03:57:30;;;;;;;;;;;19.00;61.40;;;;;;5077505;28;19977;-62
2024/01/03 03:59:55;;;;;;;;;;;19.00;61.40;;;;;;5094347;28;19931;-61
2024/01/03 04:02:21;;;;;;;;;;;19.00;61.40;;;;;;5076628;28;20395;-62
2024/01/03 04:04:46;;;;;;;;;;;19.00;61.40;;;;;;5095686;28;19934;-61
2024/01/03 04:07:12;;;;;;;;;;;19.10;61.40;;;;;;5062228;28;20392;-61
2024/01/03 04:09:37;;;;;;;;;;;19.00;61.40;;;;;;5056675;28;19929;-62
2024/01/03 04:12:03;;;;;;;;;;;19.10;61.40;;;;;;5075033;28;19931;-62
2024/01/03 04:14:28;;;;;;;;;;;19.10;61.40;;;;;;5056989;28;20018;-61
2024/01/03 04:16:54;;;;;;;;;;;19.10;61.40;;;;;;5073904;28;20003;-61
2024/01/03 04:19:19;;;;;;;;;;;19.10;61.30;;;;;;5056982;28;19936;-61
2024/01/03 04:21:45;;;;;;;;;;;19.10;61.30;;;;;;5057236;28;19960;-61
2024/01/03 04:24:10;;;;;;;;;;;19.20;61.30;;;;;;5073780;28;19927;-61
2024/01/03 04:26:36;;;;;;;;;;;19.20;61.30;;;;;;5092867;28;19930;-61
2024/01/03 04:29:02;;;;;;;;;;;19.20;61.20;;;;;;5093913;28;20380;-61
2024/01/03 04:31:28;;;;;;;;;;;19.20;61.20;;;;;;5094819;28;20339;-61
2024/01/03 04:33:53;;;;;;;;;;;19.20;61.20;;;;;;5076456;28;20383;-61
2024/01/03 04:36:19;;;;;;;;;;;19.30;61.20;;;;;;5072209;28;19932;-62
2024/01/03 04:38:45;;;;;;;;;;;19.30;61.20;;;;;;5074139;28;19932;-61
2024/01/03 04:41:10;;;;;;;;;;;19.30;61.20;;;;;;5073806;28;19924;-61
2024/01/03 04:43:36;;;;;;;;;;;19.30;61.10;;;;;;5084543;28;20359;-61
2024/01/03 04:46:01;;;;;;;;;;;19.30;61.10;;;;;;5114579;28;19924;-61
2024/01/03 04:48:27;;;;;;;;;;;19.40;61.20;;;;;;5115003;28;19927;-61
2024/01/03 04:50:52;;;;;;;;;;;19.40;61.10;;;;;;5114027;28;19930;-61
2024/01/03 04:53:18;;;;;;;;;;;19.40;61.10;;;;;;5097009;28;20014;-61
2024/01/03 04:55:44;;;;;;;;;;;19.40;61.10;;;;;;5101384;28;19927;-61
2024/01/03 04:58:09;;;;;;;;;;;19.40;61.10;;;;;;5074081;28;19970;-61
2024/01/03 05:00:36;;;;;;;;;;;19.40;61.10;;;;;;5072429;28;19924;-61
2024/01/03 05:03:02;;;;;;;;;;;19.40;61.00;;;;;;5078511;28;19927;-61
2024/01/03 05:05:27;;;;;;;;;;;19.50;61.00;;;;;;5072902;28;20007;-62
2024/01/03 05:07:54;;;;;;;;;;;19.50;61.00;;;;;;5092540;28;20372;-62
2024/01/03 05:10:19;;;;;;;;;;;19.40;61.00;;;;;;5105418;28;19924;-62
2024/01/03 05:12:45;;;;;;;;;;;19.50;61.00;;;;;;5113670;28;19923;-62
2024/01/03 05:15:11;;;;;;;;;;;19.50;61.00;;;;;;5114135;28;19965;-61
2024/01/03 05:17:36;;;;;;;;;;;19.50;60.90;;;;;;5114253;28;19924;-61
2024/01/03 05:20:04;;;;;;;;;;;19.50;60.90;;;;;;5102330;28;20359;-61
2024/01/03 05:22:31;;;;;;;;;;;19.50;60.90;;;;;;5075434;28;20579;-61
2024/01/03 05:24:56;;;;;;;;;;;19.60;60.90;;;;;;5093731;28;19924;-61
2024/01/03 05:27:22;;;;;;;;;;;19.60;60.90;;;;;;5093170;28;19924;-61
2024/01/03 05:29:48;;;;;;;;;;;19.60;60.90;;;;;;5093695;28;20014;-61
2024/01/03 05:32:13;;;;;;;;;;;19.60;60.90;;;;;;5092944;28;20433;-62
2024/01/03 05:34:39;;;;;;;;;;;19.60;60.90;;;;;;5093791;28;19931;-61
2024/01/03 05:37:04;;;;;;;;;;;19.60;60.90;;;;;;5093122;28;19931;-61
2024/01/03 05:39:30;;;;;;;;;;;19.60;60.90;;;;;;5074810;28;20293;-61
2024/01/03 05:41:58;;;;;;;;;;;19.60;60.80;;;;;;5093557;28;20015;-62
2024/01/03 05:44:23;;;;;;;;;;;19.60;60.80;;;;;;5093682;28;20008;-61
2024/01/03 05:46:49;;;;;;;;;;;19.60;60.80;;;;;;5074772;28;20033;-61
2024/01/03 05:49:14;;;;;;;;;;;19.70;60.80;;;;;;5093344;28;19931;-61
2024/01/03 05:51:40;;;;;;;;;;;19.70;60.90;;;;;;5093074;28;19924;-61
2024/01/03 05:54:05;;;;;;;;;;;19.70;60.80;;;;;;5075184;28;19966;-62
2024/01/03 05:56:31;;;;;;;;;;;19.70;60.80;;;;;;5093319;28;20019;-61
2024/01/03 05:58:56;;;;;;;;;;;19.70;60.80;;;;;;5074875;28;19931;-62
2024/01/03 06:01:22;;;;;;;;;;;19.70;60.80;;;;;;5092482;28;20429;-62
2024/01/03 06:03:49;;;;;;;;;;;19.70;60.80;;;;;;5093534;28;20022;-62
2024/01/03 06:06:16;;;;;;;;;;;19.70;60.80;;;;;;5093337;28;19963;-62
2024/01/03 06:08:41;;;;;;;;;;;19.70;60.80;;;;;;5074796;28;19955;-62
2024/01/03 06:11:10;;;;;;;;;;;19.70;60.80;;;;;;5081649;28;19960;-62
2024/01/03 06:13:35;;;;;;;;;;;19.70;60.80;;;;;;5089220;28;19924;-61
2024/01/03 06:16:01;;;;;;;;;;;19.80;60.80;;;;;;5077127;28;19932;-61
2024/01/03 06:18:26;;;;;;;;;;;19.80;60.90;;;;;;5055401;28;20297;-61
2024/01/03 06:20:52;;;;;;;;;;;19.80;60.80;;;;;;5072863;28;19925;-62
2024/01/03 06:23:17;;;;;;;;;;;19.80;60.80;;;;;;5072182;28;19924;-61
2024/01/03 06:25:43;;;;;;;;;;;19.80;60.80;;;;;;5077485;28;19935;-61
2024/01/03 06:28:08;;;;;;;;;;;19.80;60.80;;;;;;5072807;28;20003;-61
2024/01/03 06:30:35;;;;;;;;;;;19.80;60.80;;;;;;5071876;28;19932;-61
2024/01/03 06:33:01;;;;;;;;;;;19.80;60.80;;;;;;5072579;28;19931;-61
2024/01/03 06:35:26;;;;;;;;;;;19.80;60.80;;;;;;5081629;28;19924;-62
2024/01/03 06:37:52;;;;;;;;;;;19.80;60.80;;;;;;5092352;28;20054;-61
2024/01/03 06:40:17;;;;;;;;;;;19.90;60.80;;;;;;5093047;28;19924;-61
2024/01/03 06:42:43;;;;;;;;;;;19.90;60.80;;;;;;5092044;28;19924;-61
2024/01/03 06:45:08;;;;;;;;;;;19.90;60.80;;;;;;5074654;28;20075;-61
2024/01/03 06:47:34;;;;;;;;;;;19.90;60.80;;;;;;5074485;28;19924;-62
2024/01/03 06:49:59;;;;;;;;;;;19.90;60.70;;;;;;5091656;28;19924;-61
2024/01/03 06:52:25;;;;;;;;;;;19.90;60.70;;;;;;5074858;28;19924;-61
2024/01/03 06:54:50;;;;;;;;;;;19.90;60.80;;;;;;5092772;28;19930;-61
2024/01/03 06:57:16;;;;;;;;;;;19.90;60.80;;;;;;5091921;28;19931;-61
2024/01/03 06:59:41;;;;;;;;;;;19.90;60.80;;;;;;5075247;28;19955;-61
2024/01/03 07:02:07;;;;;;;;;;;19.90;60.80;;;;;;5093752;28;20343;-61
2024/01/03 07:04:33;;;;;;;;;;;19.90;60.80;;;;;;5094023;28;19981;-61
2024/01/03 07:06:58;;;;;;;;;;;20.00;60.90;;;;;;5096250;28;20321;-61
2024/01/03 07:09:24;;;;;;;;;;;20.00;61.00;;;;;;5083375;28;19925;-61
2024/01/03 07:11:50;;;;;;;;;;;20.00;61.00;;;;;;5075222;28;19974;-61
2024/01/03 07:14:15;;;;;;;;;;;20.00;60.90;;;;;;5075821;28;19924;-61
2024/01/03 07:16:41;;;;;;;;;;;20.00;60.90;;;;;;5076334;28;19970;-61
2024/01/03 07:19:06;;;;;;;;;;;20.00;61.00;;;;;;5074986;28;19925;-61
2024/01/03 07:21:32;;;;;;;;;;;20.00;60.90;;;;;;5075867;28;20011;-61
2024/01/03 07:23:58;;;;;;;;;;;20.00;61.00;;;;;;5075669;28;19965;-61
2024/01/03 07:26:24;;;;;;;;;;;20.00;61.00;;;;;;5075272;28;19932;-61
2024/01/03 07:28:49;;;;;;;;;;;20.00;61.00;;;;;;5075771;28;19968;-60
2024/01/03 07:31:15;;;;;;;;;;;20.00;61.00;;;;;;5114543;28;20420;-61
2024/01/03 07:33:40;;;;;;;;;;;20.00;61.00;;;;;;5107336;28;19925;-61
2024/01/03 07:36:06;;;;;;;;;;;20.00;61.00;;;;;;5083677;28;19924;-62
2024/01/03 07:38:32;;;;;;;;;;;20.00;61.00;;;;;;5077588;28;20011;-61
2024/01/03 07:40:58;;;;;;;;;;;20.00;61.00;;;;;;5072734;28;19924;-62
2024/01/03 07:43:23;;;;;;;;;;;20.00;61.00;;;;;;5057658;28;19920;-61
2024/01/03 07:45:49;;;;;;;;;;;20.00;61.00;;;;;;5075077;28;19924;-61
2024/01/03 07:48:14;;;;;;;;;;;20.00;61.00;;;;;;5081132;28;19924;-60
2024/01/03 07:50:40;;;;;;;;;;;20.10;61.20;;;;;;5079020;28;19974;-61
2024/01/03 07:53:08;;;;;;;;;;;20.00;61.40;;;;;;5078397;28;20269;-60
2024/01/03 07:55:33;;;;;;;;;;;20.00;61.40;;;;;;5082504;28;19924;-60
2024/01/03 07:57:59;;;;;;;;;;;20.10;61.50;;;;;;5079802;28;19930;-61
2024/01/03 08:00:24;;;;;;;;;;;20.10;61.60;;;;;;5074635;28;20265;-61
2024/01/03 08:02:49;;;;;;;;;;;20.10;61.70;;;;;;5083195;28;19920;-61
2024/01/03 08:05:15;;;;;;;;;;;20.10;61.60;;;;;;5094737;28;19931;-61
2024/01/03 08:07:40;;;;;;;;;;;20.10;61.70;;;;;;5076507;28;20291;-61
2024/01/03 08:10:06;;;;;;;;;;;20.10;61.60;;;;;;5094747;28;19921;-61
2024/01/03 08:12:32;;;;;;;;;;;20.10;61.60;;;;;;5057153;28;20440;-61
2024/01/03 08:14:58;;;;;;;;;;;20.20;61.70;;;;;;5055369;28;19921;-61
2024/01/03 08:17:24;;;;;;;;;;;20.20;61.70;;;;;;5074402;28;19947;-61
2024/01/03 08:19:49;;;;;;;;;;;20.20;61.80;;;;;;5057138;28;20304;-60
2024/01/03 08:22:14;;;;;;;;;;;20.10;61.70;;;;;;5076881;28;19969;-60
2024/01/03 08:24:40;;;;;;;;;;;20.20;61.70;;;;;;5094667;28;20280;-61
2024/01/03 08:27:05;;;;;;;;;;;20.20;61.70;;;;;;5085210;28;19925;-60
2024/01/03 08:29:32;;;;;;;;;;;20.20;61.70;;;;;;5064380;28;20065;-61
2024/01/03 08:31:58;;;;;;;;;;;20.20;61.70;;;;;;5083503;28;19963;-62
2024/01/03 08:34:23;;;;;;;;;;;20.20;61.70;;;;;;5077057;28;20394;-61
2024/01/03 08:36:49;;;;;;;;;;;20.20;61.60;;;;;;5093632;28;20295;-61
2024/01/03 08:39:14;;;;;;;;;;;20.10;61.60;;;;;;5093678;28;20390;-61
2024/01/03 08:41:40;;;;;;;;;;;20.20;61.60;;;;;;5072585;28;19928;-61
2024/01/03 08:44:05;;;;;;;;;;;20.20;61.70;;;;;;5074121;28;20018;-61
2024/01/03 08:46:40;;;;;;;;;;;20.10;61.70;;;;;;5092239;28;20299;-61
2024/01/03 08:49:06;;;;;;;;;;;20.20;61.80;;;;;;5088673;28;19970;-60
2024/01/03 08:51:32;;;;;;;;;;;20.10;61.90;;;;;;5073638;28;19935;-60
2024/01/03 08:53:58;;;;;;;;;;;20.10;61.80;;;;;;5077473;28;19924;-61
2024/01/03 08:56:23;;;;;;;;;;;20.20;61.90;;;;;;5071081;28;19932;-62
2024/01/03 08:58:49;;;;;;;;;;;20.10;61.90;;;;;;5073888;28;20269;-62
2024/01/03 09:01:18;;;;;;;;;;;20.10;61.80;;;;;;5071696;28;19924;-63
2024/01/03 09:03:44;;;;;;;;;;;20.10;61.70;;;;;;5072496;28;19938;-61
2024/01/03 09:06:11;;;;;;;;;;;20.10;61.70;;;;;;5057035;28;20019;-60
2024/01/03 09:08:36;;;;;;;;;;;20.10;61.80;;;;;;5054194;28;19928;-60
2024/01/03 09:11:08;;;;;;;;;;;20.10;61.80;;;;;;5053046;28;19978;-60
2024/01/03 09:13:37;;;;;;;;;;;20.10;61.90;;;;;;5072641;28;20449;-60
2024/01/03 09:16:03;;;;;;;;;;;20.10;61.80;;;;;;5053548;28;19924;-60
2024/01/03 09:18:28;;;;;;;;;;;20.10;61.90;;;;;;5072889;28;19935;-60
2024/01/03 09:20:54;;;;;;;;;;;20.10;61.90;;;;;;5072482;28;20645;-62
2024/01/03 09:23:19;;;;;;;;;;;20.10;62.00;;;;;;5072950;28;19925;-63
2024/01/03 09:25:45;;;;;;;;;;;20.10;61.90;;;;;;5053783;28;19931;-63
2024/01/03 09:28:10;;;;;;;;;;;20.10;62.00;;;;;;5063947;28;20273;-63
2024/01/03 09:30:39;;;;;;;;;;;20.10;62.00;;;;;;5071121;28;19924;-62
2024/01/03 09:33:04;;;;;;;;;;;20.10;62.00;;;;;;5053656;28;19925;-63
2024/01/03 09:35:30;;;;;;;;;;;20.10;62.00;;;;;;5072457;28;19931;-63
2024/01/03 09:37:55;;;;;;;;;;;20.10;62.00;;;;;;5091868;28;19924;-63
2024/01/03 09:40:21;;;;;;;;;;;20.10;62.00;;;;;;5092534;28;19979;-63
2024/01/03 09:42:46;;;;;;;;;;;20.10;62.00;;;;;;5084552;28;19925;-61
2024/01/03 09:45:12;;;;;;;;;;;20.10;62.00;;;;;;5051665;28;19967;-62
2024/01/03 09:47:37;;;;;;;;;;;20.10;62.00;;;;;;5035334;28;19924;-62
2024/01/03 09:50:03;;;;;;;;;;;20.10;62.00;;;;;;5071922;28;19929;-62
2024/01/03 09:52:28;;;;;;;;;;;20.10;62.00;;;;;;5071854;28;20027;-62
2024/01/03 09:54:54;;;;;;;;;;;20.00;61.90;;;;;;5072845;28;19963;-62
2024/01/03 09:57:20;;;;;;;;;;;20.00;61.80;;;;;;5036988;28;20295;-63
2024/01/03 09:59:45;;;;;;;;;;;20.00;61.80;;;;;;5034621;28;19935;-62
2024/01/03 10:02:12;;;;;;;;;;;20.00;61.90;;;;;;5057507;28;19975;-62
2024/01/03 10:04:37;;;;;;;;;;;20.00;62.00;;;;;;5052308;28;19928;-63
2024/01/03 10:07:03;;;;;;;;;;;20.00;62.00;;;;;;5051230;28;19925;-63
2024/01/03 10:09:44;;;;;;;;;;;20.00;62.10;;;;;;5034155;28;20042;-63
2024/01/03 10:12:16;;;;;;;;;;;20.00;62.00;;;;;;5052590;28;19928;-63
2024/01/03 10:14:42;;;;;;;;;;;20.00;62.10;;;;;;5057722;28;20050;-64
2024/01/03 10:17:08;;;;;;;;;;;20.00;62.00;;;;;;5050553;28;19947;-64
2024/01/03 10:19:33;;;;;;;;;;;20.00;62.00;;;;;;5052752;28;19925;-64
2024/01/03 10:22:01;;;;;;;;;;;20.00;62.00;;;;;;5038803;28;19936;-64
2024/01/03 10:24:27;;;;;;;;;;;20.00;62.00;;;;;;5072117;28;19925;-64
2024/01/03 10:26:52;;;;;;;;;;;20.00;62.00;;;;;;5052439;28;19931;-64
2024/01/03 10:29:18;;;;;;;;;;;20.00;62.00;;;;;;5053353;28;19970;-62
2024/01/03 10:31:44;;;;;;;;;;;20.00;62.00;;;;;;5080863;28;19966;-61
2024/01/03 10:34:17;;;;;;;;;;;20.00;61.90;;;;;;5042810;28;19978;-63
2024/01/03 10:36:43;;;;;;;;;;;20.00;61.80;;;;;;5064715;28;19925;-63
2024/01/03 10:39:10;;;;;;;;;;;20.00;61.70;;;;;;5073332;28;19933;-64
2024/01/03 10:41:36;;;;;;;;;;;20.00;61.80;;;;;;5075716;28;19924;-64
2024/01/03 10:44:01;;;;;;;;;;;20.00;61.90;;;;;;5057725;28;19931;-66
2024/01/03 10:46:28;;;;;;;;;;;20.00;62.00;;;;;;5057774;28;19924;-65
2024/01/03 10:48:53;;;;;;;;;;;20.00;61.70;;;;;;5057025;28;19931;-65
2024/01/03 10:51:22;;;;;;;;;;;20.00;61.80;;;;;;5064148;28;20310;-65
2024/01/03 10:53:47;;;;;;;;;;;20.00;61.80;;;;;;5078170;28;20443;-64
2024/01/03 10:56:13;;;;;;;;;;;20.00;61.80;;;;;;5040518;28;20050;-64
2024/01/03 10:58:39;;;;;;;;;;;20.00;61.90;;;;;;5041731;28;19951;-64
2024/01/03 11:01:14;;;;;;;;;;;20.00;61.90;;;;;;5075504;28;19924;-64
2024/01/03 11:03:43;;;;;;;;;;;20.00;62.00;;;;;;5075202;28;19999;-63
2024/01/03 11:06:22;;;;;;;;;;;20.10;62.10;;;;;;5057820;28;20411;-63
2024/01/03 11:08:48;;;;;;;;;;;20.10;62.00;;;;;;5058549;28;19925;-62
2024/01/03 11:11:27;;;;;;;;;;;20.10;62.00;;;;;;5057094;28;19928;-64
2024/01/03 11:13:52;;;;;;;;;;;20.10;62.00;;;;;;5075487;28;19932;-63
2024/01/03 11:16:32;;;;;;;;;;;20.10;62.00;;;;;;5064138;28;19924;-63
2024/01/03 11:21:35;;;;;;;;;;;20.10;61.80;;;;;;5298922;22;20012;-64
2024/01/03 11:24:06;;;;;;;;;;;20.10;61.60;;;;;;5009440;28;19926;-65
2024/01/03 11:26:50;;;;;;;;;;;20.10;61.70;;;;;;5034401;28;20016;-65
2024/01/03 11:29:41;;;;;;;;;;;20.10;61.60;;;;;;5015212;28;20383;-64
2024/01/03 11:32:07;;;;;;;;;;;20.10;61.50;;;;;;5011591;28;19933;-64
2024/01/03 11:34:36;;;;;;;;;;;20.10;61.30;;;;;;4997701;28;19926;-64
2024/01/03 11:37:03;;;;;;;;;;;20.10;61.30;;;;;;4998677;28;19926;-64
2024/01/03 11:39:35;;;;;;;;;;;20.10;61.20;;;;;;4998283;28;19933;-64
2024/01/03 11:42:04;;;;;;;;;;;20.10;61.10;;;;;;5014905;28;20052;-64
2024/01/03 11:44:30;;;;;;;;;;;20.10;61.00;;;;;;4996569;28;20020;-64
2024/01/03 11:46:59;;;;;;;;;;;20.10;61.00;;;;;;4997061;28;19933;-65
2024/01/03 11:49:24;;;;;;;;;;;20.10;61.00;;;;;;5014711;28;20360;-65
2024/01/03 11:51:50;;;;;;;;;;;20.10;61.00;;;;;;5025352;28;19933;-65
2024/01/03 11:54:16;;;;;;;;;;;20.10;60.80;;;;;;5033372;28;20016;-64
2024/01/03 11:56:41;;;;;;;;;;;20.10;60.80;;;;;;5016386;28;19929;-64
2024/01/03 11:59:07;;;;;;;;;;;20.10;60.60;;;;;;5034338;28;19971;-64
2024/01/03 12:01:32;;;;;;;;;;;20.20;60.60;;;;;;5013271;28;20028;-66
2024/01/03 12:04:08;;;;;;;;;;;20.10;60.50;;;;;;5028287;28;19929;-65
2024/01/03 12:06:34;;;;;;;;;;;20.10;61.10;;;;;;5012955;28;19926;-65
2024/01/03 12:09:00;;;;;;;;;;;20.20;60.60;;;;;;5031954;28;19929;-65
2024/01/03 12:11:25;;;;;;;;;;;20.20;60.60;;;;;;5030261;28;19979;-66
2024/01/03 12:13:51;;;;;;;;;;;20.20;60.50;;;;;;5013673;28;19934;-64
2024/01/03 12:16:16;;;;;;;;;;;20.20;60.50;;;;;;5033299;28;19979;-65
2024/01/03 12:18:48;;;;;;;;;;;20.20;60.50;;;;;;5033872;28;20027;-65
2024/01/03 12:21:13;;;;;;;;;;;20.20;60.50;;;;;;5013473;28;19925;-67
2024/01/03 12:23:51;;;;;;;;;;;20.20;60.50;;;;;;5015866;28;19951;-66
2024/01/03 12:26:17;;;;;;;;;;;20.20;60.50;;;;;;5031563;28;19921;-67
2024/01/03 12:28:42;;;;;;;;;;;20.20;60.60;;;;;;5015462;28;19979;-66
2024/01/03 12:31:16;;;;;;;;;;;20.20;60.60;;;;;;5015179;28;19921;-66
2024/01/03 12:33:41;;;;;;;;;;;20.20;60.60;;;;;;5015976;28;19959;-66
2024/01/03 12:36:07;;;;;;;;;;;20.20;60.60;;;;;;5015120;28;20265;-65
2024/01/03 12:38:32;;;;;;;;;;;20.20;60.70;;;;;;5031292;28;19932;-65
2024/01/03 12:40:58;;;;;;;;;;;20.20;60.60;;;;;;5014994;28;19929;-65
2024/01/03 12:43:23;;;;;;;;;;;20.20;60.60;;;;;;5015898;28;20354;-65
2024/01/03 12:45:49;;;;;;;;;;;20.20;60.60;;;;;;5013209;28;19934;-65
2024/01/03 12:48:15;;;;;;;;;;;20.20;60.60;;;;;;5033634;28;19933;-65
2024/01/03 12:50:42;;;;;;;;;;;20.30;60.60;;;;;;5033734;28;19967;-65
2024/01/03 12:53:07;;;;;;;;;;;20.30;60.60;;;;;;5030284;28;19925;-65
2024/01/03 12:55:33;;;;;;;;;;;20.30;60.60;;;;;;5033982;28;19928;-65
2024/01/03 12:57:58;;;;;;;;;;;20.30;60.50;;;;;;5033320;28;20018;-65
2024/01/03 13:00:24;;;;;;;;;;;20.30;60.30;;;;;;5032602;28;19925;-63
2024/01/03 13:02:49;;;;;;;;;;;20.30;60.20;;;;;;5032869;28;19929;-65
2024/01/03 13:05:15;;;;;;;;;;;20.30;60.20;;;;;;5032734;28;19964;-65
2024/01/03 13:07:40;;;;;;;;;;;20.30;60.10;;;;;;5033378;28;19932;-65
2024/01/03 13:10:06;;;;;;;;;;;20.30;60.10;;;;;;5033350;28;19925;-66
2024/01/03 13:12:32;;;;;;;;;;;20.30;60.10;;;;;;5033400;28;19940;-67
2024/01/03 13:14:58;;;;;;;;;;;20.30;60.30;;;;;;5032542;28;20020;-66
2024/01/03 13:17:24;;;;;;;;;;;20.30;60.30;;;;;;5033570;28;19925;-66
2024/01/03 13:19:49;;;;;;;;;;;20.30;60.40;;;;;;5014129;28;20366;-65
2024/01/03 13:22:15;;;;;;;;;;;20.30;60.20;;;;;;5032432;28;20423;-66
2024/01/03 13:24:41;;;;;;;;;;;20.30;60.10;;;;;;5033451;28;19965;-66
2024/01/03 13:27:07;;;;;;;;;;;20.30;60.00;;;;;;5030966;28;19929;-66
2024/01/03 13:29:33;;;;;;;;;;;20.30;60.20;;;;;;5013758;28;19948;-65
2024/01/03 13:31:58;;;;;;;;;;;20.30;60.30;;;;;;5031447;28;19925;-66
2024/01/03 13:34:24;;;;;;;;;;;20.40;60.40;;;;;;5014853;28;19968;-65
2024/01/03 13:36:50;;;;;;;;;;;20.40;60.40;;;;;;5033743;28;19929;-65
2024/01/03 13:39:15;;;;;;;;;;;20.40;60.50;;;;;;5032964;28;19979;-65
2024/01/03 13:41:43;;;;;;;;;;;20.40;60.50;;;;;;5031822;28;21455;-65
2024/01/03 13:44:08;;;;;;;;;;;20.40;60.60;;;;;;5032776;28;20416;-65
2024/01/03 13:46:34;;;;;;;;;;;20.40;60.60;;;;;;5015111;28;20012;-66
2024/01/03 13:49:00;;;;;;;;;;;20.40;60.60;;;;;;5011321;28;19938;-65
2024/01/03 13:51:28;;;;;;;;;;;20.40;60.70;;;;;;5028070;28;19925;-65
2024/01/03 13:53:54;;;;;;;;;;;20.40;60.70;;;;;;5011625;28;19971;-64
2024/01/03 13:56:20;;;;;;;;;;;20.50;60.70;;;;;;5025341;28;19936;-65
2024/01/03 13:58:48;;;;;;;;;;;20.50;60.80;;;;;;5032639;28;19925;-65
2024/01/03 14:01:14;;;;;;;;;;;20.50;60.80;;;;;;5027814;28;19933;-65
2024/01/03 14:03:39;;;;;;;;;;;20.50;60.80;;;;;;5031884;28;19929;-65
2024/01/03 14:06:05;;;;;;;;;;;20.50;60.80;;;;;;5031805;28;19971;-66
2024/01/03 14:08:31;;;;;;;;;;;20.50;60.80;;;;;;5031716;28;20372;-67
2024/01/03 14:10:56;;;;;;;;;;;20.50;60.80;;;;;;5015347;28;19979;-66
2024/01/03 14:13:22;;;;;;;;;;;20.50;60.80;;;;;;5032297;28;20368;-65